Terminal Aerodrome Forecast
Issued by NWS

Home | Current Version | Previous Version | Text Only | Print | Product List | Glossary On
Versions: 1 2 3 4 5 6 7 8 9 10 11 12 13 14 15 16 17 18 19 20 21 22 23 24 25 26 27 28
000
FTUS46 KMTR 301700
TAFSFO
TAF
KSFO 301726Z 3018/3124 29010KT P6SM SCT005 BKN008 OVC010
     FM301845 29010KT P6SM FEW008 SCT012
     FM302000 28015G24KT P6SM FEW015
     FM302300 28020G26KT P6SM FEW015
     FM310300 28015KT P6SM SCT010
     FM310500 28010KT P6SM OVC008=

USA.gov is the U.S. government's official web portal to all federal, state and local government web resources and services.